메인 페이지
METAR-TAF:

METAR-TAF

공항 :

Churchill, 매니토바, 캐나다

위도: 58-44N, 경도: 094-04W, 고도: 28m

현재 날씨관측

예보는 1 시간 4분 전, 18:00시(UTC)에 발표되었습니다.
8kt
온도 -16°C
습도 84%
기압 1006 hPa
시정: 24.1km
고도 1100ft 상공 구름 조금
고도 4700ft 상공 흐림
약한눈

METAR: CYYQ 191800Z 08008KT 15SM -SN FEW011 OVC047 M16/M18 A2971 RMK SF2SC6 SLP066

시각: 13:04 (19:04 UTC)

예보

예보는 1 시간 26분 전, 17:38시(UTC)에 발표되었습니다.
예보 대상 시간: 19일 18시부터 20일 18시까지 (UTC)
8kt
시정: 10km
고도 1200ft 상공 구름 보통
고도 4000ft 상공 흐림
약한눈
일시적
19일 18시부터 20일 03시까지 (UTC)
시정: 8.0km
고도 1200ft 상공 구름 많음
고도 4000ft 상공 흐림
약한눈
20일 0300시부터 (UTC)
북북동8kt
시정: 10km
고도 1200ft 상공 구름 보통
고도 4000ft 상공 구름 많음
일시적
20일 03시부터 20일 18시까지 (UTC)
시정: 8.0km
고도 1200ft 상공 구름 많음
고도 4000ft 상공 흐림
약한눈
전환 중
20일 04시부터 20일 06시까지 (UTC)
북북서10kt

TAF: CYYQ 191738Z 1918/2018 08008KT P6SM -SN SCT012 OVC040 TEMPO 1918/2003 5SM -SN BKN012 OVC040 FM200300 02008KT P6SM SCT012 BKN040 TEMPO 2003/2018 5SM -SN BKN012 OVC040 BECMG 2004/2006 34010KT RMK NXT FCST BY 200000Z

4,000개 이상의 공항 관측 자료 및 예보 (METAR 및 TAF 보고).

지도상에서 검색 가능한 기상관측소가 노란 점과 빨간 점으로 표시되어 있습니다.

기상관측소 명을 보려면 표시 위로 마우스를 이동하세요.

날씨 관측과 예보를 보려면 클릭하세요.

지도 변경 : 확대하려면 엑스 표시가 있는 녹색 버튼, 축소하려면 빼기 표시가 있는 녹색 버튼, 다음 페이지의 지도를 보려면 녹색 화살표를 클릭하세요.


METAR-TAF: